sensor_id;sensor_type;location;lat;lon;timestamp;temperature;humidity
6186;DHT22;3126;52.738;8.316;2022-08-25T00:00:18;21.40;57.20
6186;DHT22;3126;52.738;8.316;2022-08-25T00:05:19;21.30;57.50
6186;DHT22;3126;52.738;8.316;2022-08-25T00:10:20;21.30;58.00
6186;DHT22;3126;52.738;8.316;2022-08-25T00:15:21;21.20;58.00
6186;DHT22;3126;52.738;8.316;2022-08-25T00:20:24;21.10;58.30
6186;DHT22;3126;52.738;8.316;2022-08-25T00:25:25;21.10;58.60
6186;DHT22;3126;52.738;8.316;2022-08-25T00:30:26;21.00;59.10
6186;DHT22;3126;52.738;8.316;2022-08-25T00:35:26;20.90;59.20
6186;DHT22;3126;52.738;8.316;2022-08-25T00:40:28;20.90;59.60
6186;DHT22;3126;52.738;8.316;2022-08-25T00:45:28;20.80;59.70
6186;DHT22;3126;52.738;8.316;2022-08-25T00:50:31;20.80;60.10
6186;DHT22;3126;52.738;8.316;2022-08-25T00:55:36;20.70;60.20
6186;DHT22;3126;52.738;8.316;2022-08-25T01:00:42;20.70;60.40
6186;DHT22;3126;52.738;8.316;2022-08-25T01:05:44;20.60;60.70
6186;DHT22;3126;52.738;8.316;2022-08-25T01:10:46;20.60;61.10
6186;DHT22;3126;52.738;8.316;2022-08-25T01:15:49;20.50;61.40
6186;DHT22;3126;52.738;8.316;2022-08-25T01:20:57;20.50;61.70
6186;DHT22;3126;52.738;8.316;2022-08-25T01:26:20;20.40;62.00
6186;DHT22;3126;52.738;8.316;2022-08-25T01:31:21;20.30;62.40
6186;DHT22;3126;52.738;8.316;2022-08-25T01:36:22;20.30;62.40
6186;DHT22;3126;52.738;8.316;2022-08-25T01:46:47;20.20;63.00
6186;DHT22;3126;52.738;8.316;2022-08-25T01:51:55;20.20;63.60
6186;DHT22;3126;52.738;8.316;2022-08-25T01:57:08;20.10;64.10
6186;DHT22;3126;52.738;8.316;2022-08-25T02:02:09;20.10;63.90
6186;DHT22;3126;52.738;8.316;2022-08-25T02:07:10;20.00;64.00
6186;DHT22;3126;52.738;8.316;2022-08-25T02:12:10;20.00;64.10
6186;DHT22;3126;52.738;8.316;2022-08-25T02:17:14;20.00;64.50
6186;DHT22;3126;52.738;8.316;2022-08-25T02:22:16;20.00;64.80
6186;DHT22;3126;52.738;8.316;2022-08-25T02:27:18;19.80;65.50
6186;DHT22;3126;52.738;8.316;2022-08-25T02:32:18;19.80;66.40
6186;DHT22;3126;52.738;8.316;2022-08-25T02:37:19;19.60;66.30
6186;DHT22;3126;52.738;8.316;2022-08-25T02:42:20;19.60;66.70
6186;DHT22;3126;52.738;8.316;2022-08-25T02:47:21;19.50;67.10
6186;DHT22;3126;52.738;8.316;2022-08-25T02:52:21;19.40;67.50
6186;DHT22;3126;52.738;8.316;2022-08-25T02:57:22;19.40;67.90
6186;DHT22;3126;52.738;8.316;2022-08-25T03:02:23;19.30;68.60
6186;DHT22;3126;52.738;8.316;2022-08-25T03:07:24;19.20;68.50
6186;DHT22;3126;52.738;8.316;2022-08-25T03:12:25;19.20;69.00
6186;DHT22;3126;52.738;8.316;2022-08-25T03:17:25;19.10;69.60
6186;DHT22;3126;52.738;8.316;2022-08-25T03:22:26;18.90;70.30
6186;DHT22;3126;52.738;8.316;2022-08-25T03:27:28;18.80;70.30
6186;DHT22;3126;52.738;8.316;2022-08-25T03:32:29;18.80;70.50
6186;DHT22;3126;52.738;8.316;2022-08-25T03:37:30;18.70;71.10
6186;DHT22;3126;52.738;8.316;2022-08-25T03:42:31;18.70;71.70
6186;DHT22;3126;52.738;8.316;2022-08-25T03:47:31;18.50;72.60
6186;DHT22;3126;52.738;8.316;2022-08-25T03:52:32;18.40;72.70
6186;DHT22;3126;52.738;8.316;2022-08-25T03:57:32;18.40;72.50
6186;DHT22;3126;52.738;8.316;2022-08-25T04:02:33;18.30;72.90
6186;DHT22;3126;52.738;8.316;2022-08-25T04:07:34;18.30;73.10
6186;DHT22;3126;52.738;8.316;2022-08-25T04:12:35;18.30;73.40
6186;DHT22;3126;52.738;8.316;2022-08-25T04:17:38;18.30;73.50
6186;DHT22;3126;52.738;8.316;2022-08-25T04:22:39;18.20;73.60
6186;DHT22;3126;52.738;8.316;2022-08-25T04:27:39;18.20;73.90
6186;DHT22;3126;52.738;8.316;2022-08-25T04:37:41;18.20;74.30
6186;DHT22;3126;52.738;8.316;2022-08-25T04:42:41;18.10;74.80
6186;DHT22;3126;52.738;8.316;2022-08-25T04:47:44;18.00;75.20
6186;DHT22;3126;52.738;8.316;2022-08-25T04:52:44;18.00;75.80
6186;DHT22;3126;52.738;8.316;2022-08-25T04:57:46;18.00;76.40
6186;DHT22;3126;52.738;8.316;2022-08-25T05:02:47;18.00;76.60
6186;DHT22;3126;52.738;8.316;2022-08-25T05:07:48;18.00;76.70
6186;DHT22;3126;52.738;8.316;2022-08-25T05:12:49;18.00;76.70
6186;DHT22;3126;52.738;8.316;2022-08-25T05:17:50;18.00;76.90
6186;DHT22;3126;52.738;8.316;2022-08-25T05:22:50;18.00;77.50
6186;DHT22;3126;52.738;8.316;2022-08-25T05:27:51;18.00;77.90
6186;DHT22;3126;52.738;8.316;2022-08-25T05:32:52;18.10;78.10
6186;DHT22;3126;52.738;8.316;2022-08-25T05:37:52;18.20;78.20
6186;DHT22;3126;52.738;8.316;2022-08-25T05:42:53;18.30;78.30
6186;DHT22;3126;52.738;8.316;2022-08-25T05:47:53;18.50;78.40
6186;DHT22;3126;52.738;8.316;2022-08-25T05:52:54;18.70;77.80
6186;DHT22;3126;52.738;8.316;2022-08-25T05:57:54;18.90;77.10
6186;DHT22;3126;52.738;8.316;2022-08-25T06:02:55;19.20;76.50
6186;DHT22;3126;52.738;8.316;2022-08-25T06:07:56;19.50;75.30
6186;DHT22;3126;52.738;8.316;2022-08-25T06:12:56;20.00;73.70
6186;DHT22;3126;52.738;8.316;2022-08-25T06:17:57;20.30;72.00
6186;DHT22;3126;52.738;8.316;2022-08-25T06:22:58;20.50;71.90
6186;DHT22;3126;52.738;8.316;2022-08-25T06:27:59;20.60;71.90
6186;DHT22;3126;52.738;8.316;2022-08-25T06:33:00;20.80;70.90
6186;DHT22;3126;52.738;8.316;2022-08-25T06:48:06;22.10;68.70
6186;DHT22;3126;52.738;8.316;2022-08-25T06:53:06;21.90;68.00
6186;DHT22;3126;52.738;8.316;2022-08-25T06:58:07;22.20;67.30
6186;DHT22;3126;52.738;8.316;2022-08-25T07:03:09;22.50;66.40
6186;DHT22;3126;52.738;8.316;2022-08-25T07:08:09;22.80;65.70
6186;DHT22;3126;52.738;8.316;2022-08-25T07:13:11;23.00;65.00
6186;DHT22;3126;52.738;8.316;2022-08-25T07:18:12;23.20;63.70
6186;DHT22;3126;52.738;8.316;2022-08-25T07:23:12;23.40;63.50
6186;DHT22;3126;52.738;8.316;2022-08-25T07:28:15;23.60;63.40
6186;DHT22;3126;52.738;8.316;2022-08-25T07:33:16;23.70;62.60
6186;DHT22;3126;52.738;8.316;2022-08-25T07:38:16;23.80;62.00
6186;DHT22;3126;52.738;8.316;2022-08-25T07:43:17;24.00;62.00
6186;DHT22;3126;52.738;8.316;2022-08-25T07:48:19;24.20;61.30
6186;DHT22;3126;52.738;8.316;2022-08-25T07:53:20;24.50;60.40
6186;DHT22;3126;52.738;8.316;2022-08-25T07:58:20;24.60;59.90
6186;DHT22;3126;52.738;8.316;2022-08-25T08:03:21;24.80;59.50
6186;DHT22;3126;52.738;8.316;2022-08-25T08:08:22;24.90;60.20
6186;DHT22;3126;52.738;8.316;2022-08-25T08:13:23;25.00;59.20
6186;DHT22;3126;52.738;8.316;2022-08-25T08:18:25;25.30;59.00
6186;DHT22;3126;52.738;8.316;2022-08-25T08:23:26;25.60;57.00
6186;DHT22;3126;52.738;8.316;2022-08-25T08:33:28;26.00;56.00
6186;DHT22;3126;52.738;8.316;2022-08-25T08:38:29;26.90;54.00
6186;DHT22;3126;52.738;8.316;2022-08-25T08:43:30;27.30;53.80
6186;DHT22;3126;52.738;8.316;2022-08-25T08:59:20;28.10;51.90
6186;DHT22;3126;52.738;8.316;2022-08-25T09:04:26;28.80;50.20
6186;DHT22;3126;52.738;8.316;2022-08-25T09:26:07;30.20;46.60
6186;DHT22;3126;52.738;8.316;2022-08-25T09:31:34;30.30;46.40
6186;DHT22;3126;52.738;8.316;2022-08-25T09:41:49;30.30;46.40
6186;DHT22;3126;52.738;8.316;2022-08-25T09:57:43;30.90;44.00
6186;DHT22;3126;52.738;8.316;2022-08-25T11:05:27;31.10;43.30
6186;DHT22;3126;52.738;8.316;2022-08-25T11:11:04;31.70;41.80
6186;DHT22;3126;52.738;8.316;2022-08-25T11:16:14;31.80;41.00
6186;DHT22;3126;52.738;8.316;2022-08-25T13:14:52;30.80;43.80
6186;DHT22;3126;52.738;8.316;2022-08-25T13:25:17;31.10;42.10
6186;DHT22;3126;52.738;8.316;2022-08-25T13:35:29;31.30;41.20
6186;DHT22;3126;52.738;8.316;2022-08-25T13:40:31;31.80;42.10
6186;DHT22;3126;52.738;8.316;2022-08-25T13:45:44;31.70;42.20
6186;DHT22;3126;52.738;8.316;2022-08-25T13:55:54;31.50;41.80
6186;DHT22;3126;52.738;8.316;2022-08-25T14:06:09;31.30;43.70
6186;DHT22;3126;52.738;8.316;2022-08-25T14:11:13;31.00;43.80
6186;DHT22;3126;52.738;8.316;2022-08-25T16:32:13;30.60;44.80
6186;DHT22;3126;52.738;8.316;2022-08-25T16:37:14;29.80;45.70
6186;DHT22;3126;52.738;8.316;2022-08-25T16:42:14;29.70;45.80
6186;DHT22;3126;52.738;8.316;2022-08-25T16:47:15;29.70;46.30
6186;DHT22;3126;52.738;8.316;2022-08-25T16:52:15;29.50;46.00
6186;DHT22;3126;52.738;8.316;2022-08-25T16:57:35;29.50;47.30
6186;DHT22;3126;52.738;8.316;2022-08-25T17:02:35;29.30;46.80
6186;DHT22;3126;52.738;8.316;2022-08-25T17:12:37;29.30;47.90
6186;DHT22;3126;52.738;8.316;2022-08-25T17:17:38;29.10;48.00
6186;DHT22;3126;52.738;8.316;2022-08-25T17:22:41;29.00;48.20
6186;DHT22;3126;52.738;8.316;2022-08-25T17:27:43;28.90;48.70
6186;DHT22;3126;52.738;8.316;2022-08-25T17:32:43;28.80;48.70
6186;DHT22;3126;52.738;8.316;2022-08-25T17:37:44;28.70;49.20
6186;DHT22;3126;52.738;8.316;2022-08-25T17:42:44;28.60;49.00
6186;DHT22;3126;52.738;8.316;2022-08-25T17:47:45;28.50;49.60
6186;DHT22;3126;52.738;8.316;2022-08-25T17:52:45;28.30;50.10
6186;DHT22;3126;52.738;8.316;2022-08-25T17:57:47;28.20;50.40
6186;DHT22;3126;52.738;8.316;2022-08-25T18:02:48;28.00;50.90
6186;DHT22;3126;52.738;8.316;2022-08-25T18:07:49;27.90;51.30
6186;DHT22;3126;52.738;8.316;2022-08-25T18:12:50;27.70;51.80
6186;DHT22;3126;52.738;8.316;2022-08-25T18:17:52;27.60;52.00
6186;DHT22;3126;52.738;8.316;2022-08-25T18:22:54;27.40;52.40
6186;DHT22;3126;52.738;8.316;2022-08-25T18:27:56;27.30;52.50
6186;DHT22;3126;52.738;8.316;2022-08-25T18:32:58;27.20;53.10
6186;DHT22;3126;52.738;8.316;2022-08-25T18:37:59;27.10;53.60
6186;DHT22;3126;52.738;8.316;2022-08-25T18:43:18;27.00;53.60
6186;DHT22;3126;52.738;8.316;2022-08-25T18:48:19;26.80;53.90
6186;DHT22;3126;52.738;8.316;2022-08-25T18:53:24;26.70;54.10
6186;DHT22;3126;52.738;8.316;2022-08-25T18:58:25;26.60;54.50
6186;DHT22;3126;52.738;8.316;2022-08-25T19:03:26;26.50;54.60
6186;DHT22;3126;52.738;8.316;2022-08-25T19:08:27;26.50;54.80
6186;DHT22;3126;52.738;8.316;2022-08-25T19:13:27;26.40;55.00
6186;DHT22;3126;52.738;8.316;2022-08-25T19:18:28;26.30;55.20
6186;DHT22;3126;52.738;8.316;2022-08-25T19:23:28;26.20;55.30
6186;DHT22;3126;52.738;8.316;2022-08-25T19:28:29;26.10;55.70
6186;DHT22;3126;52.738;8.316;2022-08-25T19:33:30;26.00;56.10
6186;DHT22;3126;52.738;8.316;2022-08-25T19:38:31;26.00;56.50
6186;DHT22;3126;52.738;8.316;2022-08-25T19:43:31;25.80;56.70
6186;DHT22;3126;52.738;8.316;2022-08-25T19:53:33;25.80;57.30
6186;DHT22;3126;52.738;8.316;2022-08-25T19:58:34;25.60;58.30
6186;DHT22;3126;52.738;8.316;2022-08-25T20:03:34;25.40;58.70
6186;DHT22;3126;52.738;8.316;2022-08-25T20:08:35;25.30;59.10
6186;DHT22;3126;52.738;8.316;2022-08-25T20:13:35;25.20;59.60
6186;DHT22;3126;52.738;8.316;2022-08-25T20:18:36;25.00;59.80
6186;DHT22;3126;52.738;8.316;2022-08-25T20:23:36;24.90;60.10
6186;DHT22;3126;52.738;8.316;2022-08-25T20:28:56;24.80;60.60
6186;DHT22;3126;52.738;8.316;2022-08-25T20:33:57;24.70;60.70
6186;DHT22;3126;52.738;8.316;2022-08-25T20:38:57;24.70;60.90
6186;DHT22;3126;52.738;8.316;2022-08-25T20:43:58;24.50;61.60
6186;DHT22;3126;52.738;8.316;2022-08-25T20:49:00;24.50;62.00
6186;DHT22;3126;52.738;8.316;2022-08-25T20:54:01;24.40;62.10
6186;DHT22;3126;52.738;8.316;2022-08-25T20:59:01;24.30;62.40
6186;DHT22;3126;52.738;8.316;2022-08-25T21:04:12;24.20;62.60
6186;DHT22;3126;52.738;8.316;2022-08-25T21:09:15;24.20;62.70
6186;DHT22;3126;52.738;8.316;2022-08-25T21:14:16;24.20;63.00
6186;DHT22;3126;52.738;8.316;2022-08-25T21:19:20;24.20;63.00
6186;DHT22;3126;52.738;8.316;2022-08-25T21:24:21;24.20;63.10
6186;DHT22;3126;52.738;8.316;2022-08-25T21:29:23;24.10;63.20
6186;DHT22;3126;52.738;8.316;2022-08-25T21:34:24;24.10;63.50
6186;DHT22;3126;52.738;8.316;2022-08-25T21:39:26;24.10;63.70
6186;DHT22;3126;52.738;8.316;2022-08-25T21:44:28;24.00;63.90
6186;DHT22;3126;52.738;8.316;2022-08-25T21:49:28;24.00;64.10
6186;DHT22;3126;52.738;8.316;2022-08-25T21:54:31;24.00;64.40
6186;DHT22;3126;52.738;8.316;2022-08-25T21:59:34;23.90;64.40
6186;DHT22;3126;52.738;8.316;2022-08-25T22:04:36;23.80;64.60
6186;DHT22;3126;52.738;8.316;2022-08-25T22:09:37;23.80;65.00
6186;DHT22;3126;52.738;8.316;2022-08-25T22:14:39;23.70;65.00
6186;DHT22;3126;52.738;8.316;2022-08-25T22:19:39;23.70;65.20
6186;DHT22;3126;52.738;8.316;2022-08-25T22:24:40;23.60;65.60
6186;DHT22;3126;52.738;8.316;2022-08-25T22:29:41;23.50;65.80
6186;DHT22;3126;52.738;8.316;2022-08-25T22:34:42;23.50;66.00
6186;DHT22;3126;52.738;8.316;2022-08-25T22:39:44;23.40;66.40
6186;DHT22;3126;52.738;8.316;2022-08-25T22:44:44;23.30;66.60
6186;DHT22;3126;52.738;8.316;2022-08-25T22:49:45;23.30;66.90
6186;DHT22;3126;52.738;8.316;2022-08-25T22:54:46;23.20;67.20
6186;DHT22;3126;52.738;8.316;2022-08-25T22:59:46;23.10;67.60
6186;DHT22;3126;52.738;8.316;2022-08-25T23:04:47;23.00;67.90
6186;DHT22;3126;52.738;8.316;2022-08-25T23:09:48;22.90;68.50
6186;DHT22;3126;52.738;8.316;2022-08-25T23:14:48;22.80;68.70
6186;DHT22;3126;52.738;8.316;2022-08-25T23:19:49;22.80;68.90
6186;DHT22;3126;52.738;8.316;2022-08-25T23:24:50;22.70;69.40
6186;DHT22;3126;52.738;8.316;2022-08-25T23:29:53;22.70;69.70
6186;DHT22;3126;52.738;8.316;2022-08-25T23:34:54;22.60;70.30
6186;DHT22;3126;52.738;8.316;2022-08-25T23:39:54;22.50;70.50
6186;DHT22;3126;52.738;8.316;2022-08-25T23:44:55;22.40;70.80
6186;DHT22;3126;52.738;8.316;2022-08-25T23:49:56;22.40;71.10
6186;DHT22;3126;52.738;8.316;2022-08-25T23:54:57;22.40;71.30
6186;DHT22;3126;52.738;8.316;2022-08-25T23:59:58;22.30;71.70
